Terminal Aerodrome Forecast
Issued by NWS

Home | Current Version | Previous Version | Text Only | Print | Product List | Glossary On
Versions: 1 2 3 4 5 6 7 8 9 10 11 12 13 14 15 16 17 18 19 20 21 22 23 24 25 26 27 28 29 30 31 32 33 34 35
000
FTUS44 KOUN 181138
TAFCSM
TAF
KCSM 181138Z 1812/1912 18010KT 3SM BR FEW001 BKN012
     FM181800 18010KT P6SM BKN025
     FM181900 18010KT P6SM BKN035
     FM182100 17010KT P6SM SCT040
     FM190000 14008KT P6SM SCT250=

USA.gov is the U.S. government's official web portal to all federal, state and local government web resources and services.